sensor_id;sensor_type;location;lat;lon;timestamp;noise_LAeq;noise_LA_min;noise_LA_max;noise_LA01;noise_LA95
47109;Laerm;32856;51.422;6.794;2024-01-30T00:01:57;53.57;45.63;66.29;;
47109;Laerm;32856;51.422;6.794;2024-01-30T00:04:24;49.36;43.77;56.43;;
47109;Laerm;32856;51.422;6.794;2024-01-30T00:06:52;50.51;44.07;56.99;;
47109;Laerm;32856;51.422;6.794;2024-01-30T00:09:20;53.92;45.14;69.61;;
47109;Laerm;32856;51.422;6.794;2024-01-30T00:11:47;52.51;45.36;58.83;;
47109;Laerm;32856;51.422;6.794;2024-01-30T00:14:14;53.45;43.49;68.82;;
47109;Laerm;32856;51.422;6.794;2024-01-30T00:16:43;55.22;43.94;62.61;;
47109;Laerm;32856;51.422;6.794;2024-01-30T00:19:11;51.53;43.34;66.65;;
47109;Laerm;32856;51.422;6.794;2024-01-30T00:21:38;51.00;45.07;56.09;;
47109;Laerm;32856;51.422;6.794;2024-01-30T00:24:06;54.14;42.71;71.15;;
47109;Laerm;32856;51.422;6.794;2024-01-30T00:26:33;49.96;44.47;55.77;;
47109;Laerm;32856;51.422;6.794;2024-01-30T00:29:01;52.19;45.11;59.51;;
47109;Laerm;32856;51.422;6.794;2024-01-30T00:31:28;58.43;47.52;82.29;;
47109;Laerm;32856;51.422;6.794;2024-01-30T00:33:57;53.74;49.39;61.94;;
47109;Laerm;32856;51.422;6.794;2024-01-30T00:36:24;52.55;44.90;58.06;;
47109;Laerm;32856;51.422;6.794;2024-01-30T00:38:52;54.21;44.03;65.27;;
47109;Laerm;32856;51.422;6.794;2024-01-30T00:41:19;51.18;42.82;57.97;;
47109;Laerm;32856;51.422;6.794;2024-01-30T00:43:46;51.10;45.54;58.72;;
47109;Laerm;32856;51.422;6.794;2024-01-30T00:46:14;56.82;43.39;75.49;;
47109;Laerm;32856;51.422;6.794;2024-01-30T00:48:41;51.29;46.20;57.01;;
47109;Laerm;32856;51.422;6.794;2024-01-30T00:51:10;52.62;47.10;59.20;;
47109;Laerm;32856;51.422;6.794;2024-01-30T00:53:37;52.72;46.35;64.16;;
47109;Laerm;32856;51.422;6.794;2024-01-30T00:56:05;52.13;45.48;59.21;;
47109;Laerm;32856;51.422;6.794;2024-01-30T00:58:33;50.51;42.30;57.20;;
47109;Laerm;32856;51.422;6.794;2024-01-30T01:01:00;49.41;44.07;58.35;;
47109;Laerm;32856;51.422;6.794;2024-01-30T01:03:28;47.79;41.96;54.15;;
47109;Laerm;32856;51.422;6.794;2024-01-30T01:05:55;49.55;42.41;55.46;;
47109;Laerm;32856;51.422;6.794;2024-01-30T01:08:24;50.80;44.62;55.19;;
47109;Laerm;32856;51.422;6.794;2024-01-30T01:10:52;53.76;44.03;72.30;;
47109;Laerm;32856;51.422;6.794;2024-01-30T01:13:18;52.46;45.01;63.67;;
47109;Laerm;32856;51.422;6.794;2024-01-30T01:15:46;51.76;45.51;64.45;;
47109;Laerm;32856;51.422;6.794;2024-01-30T01:18:13;52.58;46.07;61.36;;
47109;Laerm;32856;51.422;6.794;2024-01-30T01:20:41;55.39;46.28;71.70;;
47109;Laerm;32856;51.422;6.794;2024-01-30T01:23:08;59.23;49.30;75.76;;
47109;Laerm;32856;51.422;6.794;2024-01-30T01:25:37;51.00;42.29;71.82;;
47109;Laerm;32856;51.422;6.794;2024-01-30T01:28:04;55.03;45.89;67.81;;
47109;Laerm;32856;51.422;6.794;2024-01-30T01:30:32;54.78;44.58;66.61;;
47109;Laerm;32856;51.422;6.794;2024-01-30T01:32:59;55.33;45.91;73.71;;
47109;Laerm;32856;51.422;6.794;2024-01-30T01:35:27;54.00;46.95;63.10;;
47109;Laerm;32856;51.422;6.794;2024-01-30T01:37:54;52.48;46.10;58.03;;
47109;Laerm;32856;51.422;6.794;2024-01-30T01:40:22;53.18;46.33;59.51;;
47109;Laerm;32856;51.422;6.794;2024-01-30T01:42:51;48.90;44.54;54.12;;
47109;Laerm;32856;51.422;6.794;2024-01-30T01:45:19;47.33;42.71;60.40;;
47109;Laerm;32856;51.422;6.794;2024-01-30T01:47:47;54.65;47.08;69.83;;
47109;Laerm;32856;51.422;6.794;2024-01-30T01:50:17;51.59;47.22;58.43;;
47109;Laerm;32856;51.422;6.794;2024-01-30T01:52:46;51.37;44.54;60.26;;
47109;Laerm;32856;51.422;6.794;2024-01-30T01:55:14;50.40;44.15;55.25;;
47109;Laerm;32856;51.422;6.794;2024-01-30T01:57:43;54.53;47.04;68.92;;
47109;Laerm;32856;51.422;6.794;2024-01-30T02:00:12;51.88;44.69;58.98;;
47109;Laerm;32856;51.422;6.794;2024-01-30T02:02:41;53.68;45.07;69.68;;
47109;Laerm;32856;51.422;6.794;2024-01-30T02:05:10;51.07;46.07;57.54;;
47109;Laerm;32856;51.422;6.794;2024-01-30T02:07:38;51.48;44.27;59.64;;
47109;Laerm;32856;51.422;6.794;2024-01-30T02:10:06;55.90;49.47;74.93;;
47109;Laerm;32856;51.422;6.794;2024-01-30T02:12:34;56.62;46.23;65.27;;
47109;Laerm;32856;51.422;6.794;2024-01-30T02:15:02;51.30;44.65;59.66;;
47109;Laerm;32856;51.422;6.794;2024-01-30T02:17:32;52.53;46.59;58.22;;
47109;Laerm;32856;51.422;6.794;2024-01-30T02:19:59;51.37;45.80;58.48;;
47109;Laerm;32856;51.422;6.794;2024-01-30T02:22:28;54.30;48.29;60.10;;
47109;Laerm;32856;51.422;6.794;2024-01-30T02:24:55;53.14;48.10;71.12;;
47109;Laerm;32856;51.422;6.794;2024-01-30T02:27:23;51.99;45.54;62.78;;
47109;Laerm;32856;51.422;6.794;2024-01-30T02:29:50;51.26;45.17;58.46;;
47109;Laerm;32856;51.422;6.794;2024-01-30T02:32:18;52.35;46.76;62.03;;
47109;Laerm;32856;51.422;6.794;2024-01-30T02:34:45;57.84;47.95;74.62;;
47109;Laerm;32856;51.422;6.794;2024-01-30T02:37:12;53.42;47.02;64.97;;
47109;Laerm;32856;51.422;6.794;2024-01-30T02:39:41;53.85;48.49;69.36;;
47109;Laerm;32856;51.422;6.794;2024-01-30T02:42:08;51.63;46.02;68.36;;
47109;Laerm;32856;51.422;6.794;2024-01-30T02:44:36;53.56;45.30;70.37;;
47109;Laerm;32856;51.422;6.794;2024-01-30T02:47:03;51.76;46.13;58.19;;
47109;Laerm;32856;51.422;6.794;2024-01-30T02:49:30;53.54;45.72;70.50;;
47109;Laerm;32856;51.422;6.794;2024-01-30T02:51:58;55.57;43.77;70.94;;
47109;Laerm;32856;51.422;6.794;2024-01-30T02:54:25;57.50;44.58;74.88;;
47109;Laerm;32856;51.422;6.794;2024-01-30T02:56:54;58.42;50.44;73.14;;
47109;Laerm;32856;51.422;6.794;2024-01-30T02:59:21;55.79;48.57;72.17;;
47109;Laerm;32856;51.422;6.794;2024-01-30T03:01:49;52.47;46.30;57.58;;
47109;Laerm;32856;51.422;6.794;2024-01-30T03:04:17;58.80;48.76;73.52;;
47109;Laerm;32856;51.422;6.794;2024-01-30T03:06:44;53.45;46.78;58.94;;
47109;Laerm;32856;51.422;6.794;2024-01-30T03:09:12;53.86;47.00;59.55;;
47109;Laerm;32856;51.422;6.794;2024-01-30T03:11:39;55.56;48.25;63.39;;
47109;Laerm;32856;51.422;6.794;2024-01-30T03:14:08;62.18;46.89;81.19;;
47109;Laerm;32856;51.422;6.794;2024-01-30T03:16:37;60.04;47.68;76.25;;
47109;Laerm;32856;51.422;6.794;2024-01-30T03:19:05;57.75;46.87;71.86;;
47109;Laerm;32856;51.422;6.794;2024-01-30T03:21:33;55.94;50.22;66.11;;
47109;Laerm;32856;51.422;6.794;2024-01-30T03:24:01;54.54;48.10;59.31;;
47109;Laerm;32856;51.422;6.794;2024-01-30T03:26:28;53.76;49.32;59.00;;
47109;Laerm;32856;51.422;6.794;2024-01-30T03:28:55;57.94;49.67;73.66;;
47109;Laerm;32856;51.422;6.794;2024-01-30T03:31:24;58.82;48.15;72.86;;
47109;Laerm;32856;51.422;6.794;2024-01-30T03:33:52;58.91;51.11;76.50;;
47109;Laerm;32856;51.422;6.794;2024-01-30T03:36:19;56.76;52.04;68.64;;
47109;Laerm;32856;51.422;6.794;2024-01-30T03:38:46;60.10;50.69;78.49;;
47109;Laerm;32856;51.422;6.794;2024-01-30T03:41:14;54.10;49.11;59.54;;
47109;Laerm;32856;51.422;6.794;2024-01-30T03:43:41;59.58;50.58;75.91;;
47109;Laerm;32856;51.422;6.794;2024-01-30T03:46:08;54.00;51.15;57.89;;
47109;Laerm;32856;51.422;6.794;2024-01-30T03:48:37;58.92;50.66;74.43;;
47109;Laerm;32856;51.422;6.794;2024-01-30T03:51:05;56.53;49.50;70.64;;
47109;Laerm;32856;51.422;6.794;2024-01-30T03:53:32;59.93;49.71;76.92;;
47109;Laerm;32856;51.422;6.794;2024-01-30T03:56:00;57.10;51.37;68.52;;
47109;Laerm;32856;51.422;6.794;2024-01-30T03:58:27;59.14;52.11;74.09;;
47109;Laerm;32856;51.422;6.794;2024-01-30T04:00:54;61.04;52.94;75.13;;
47109;Laerm;32856;51.422;6.794;2024-01-30T04:03:22;60.12;53.38;75.30;;
47109;Laerm;32856;51.422;6.794;2024-01-30T04:05:52;57.82;53.70;67.07;;
47109;Laerm;32856;51.422;6.794;2024-01-30T04:08:20;59.51;52.95;73.44;;
47109;Laerm;32856;51.422;6.794;2024-01-30T04:10:47;61.22;51.81;74.66;;
47109;Laerm;32856;51.422;6.794;2024-01-30T04:13:14;63.48;53.87;80.02;;
47109;Laerm;32856;51.422;6.794;2024-01-30T04:15:42;59.00;53.55;71.14;;
47109;Laerm;32856;51.422;6.794;2024-01-30T04:18:09;62.79;54.29;75.94;;
47109;Laerm;32856;51.422;6.794;2024-01-30T04:20:37;61.13;53.58;73.10;;
47109;Laerm;32856;51.422;6.794;2024-01-30T04:23:05;61.04;53.20;74.69;;
47109;Laerm;32856;51.422;6.794;2024-01-30T04:25:33;61.70;54.07;74.93;;
47109;Laerm;32856;51.422;6.794;2024-01-30T04:28:00;60.54;52.75;73.78;;
47109;Laerm;32856;51.422;6.794;2024-01-30T04:30:28;61.37;53.63;76.48;;
47109;Laerm;32856;51.422;6.794;2024-01-30T04:32:55;62.09;53.68;76.89;;
47109;Laerm;32856;51.422;6.794;2024-01-30T04:35:22;59.68;54.79;70.83;;
47109;Laerm;32856;51.422;6.794;2024-01-30T04:37:51;60.27;54.83;72.14;;
47109;Laerm;32856;51.422;6.794;2024-01-30T04:40:20;63.95;54.82;82.24;;
47109;Laerm;32856;51.422;6.794;2024-01-30T04:42:48;59.40;54.49;72.50;;
47109;Laerm;32856;51.422;6.794;2024-01-30T04:45:15;61.42;55.40;74.18;;
47109;Laerm;32856;51.422;6.794;2024-01-30T04:47:43;64.45;54.24;78.46;;
47109;Laerm;32856;51.422;6.794;2024-01-30T04:50:10;63.87;55.47;73.65;;
47109;Laerm;32856;51.422;6.794;2024-01-30T04:52:38;62.26;55.17;74.87;;
47109;Laerm;32856;51.422;6.794;2024-01-30T04:55:05;61.61;55.24;74.37;;
47109;Laerm;32856;51.422;6.794;2024-01-30T04:57:34;60.74;55.16;71.87;;
47109;Laerm;32856;51.422;6.794;2024-01-30T05:00:03;62.20;54.81;73.68;;
47109;Laerm;32856;51.422;6.794;2024-01-30T05:02:31;62.75;54.80;76.02;;
47109;Laerm;32856;51.422;6.794;2024-01-30T05:04:58;60.41;54.68;72.69;;
47109;Laerm;32856;51.422;6.794;2024-01-30T05:07:26;62.30;54.60;73.27;;
47109;Laerm;32856;51.422;6.794;2024-01-30T05:09:53;61.32;53.43;71.64;;
47109;Laerm;32856;51.422;6.794;2024-01-30T05:12:23;62.53;55.38;74.86;;
47109;Laerm;32856;51.422;6.794;2024-01-30T05:14:52;63.50;55.63;79.33;;
47109;Laerm;32856;51.422;6.794;2024-01-30T05:17:19;62.39;54.49;75.70;;
47109;Laerm;32856;51.422;6.794;2024-01-30T05:19:47;62.88;55.43;78.61;;
47109;Laerm;32856;51.422;6.794;2024-01-30T05:22:14;61.54;55.58;72.01;;
47109;Laerm;32856;51.422;6.794;2024-01-30T05:24:44;64.42;56.52;75.50;;
47109;Laerm;32856;51.422;6.794;2024-01-30T05:27:12;62.68;55.13;73.56;;
47109;Laerm;32856;51.422;6.794;2024-01-30T05:29:39;61.20;55.82;72.49;;
47109;Laerm;32856;51.422;6.794;2024-01-30T05:32:08;63.85;55.99;75.06;;
47109;Laerm;32856;51.422;6.794;2024-01-30T05:34:36;65.35;56.80;76.03;;
47109;Laerm;32856;51.422;6.794;2024-01-30T05:37:04;62.40;55.49;74.11;;
47109;Laerm;32856;51.422;6.794;2024-01-30T05:39:31;63.40;55.81;74.00;;
47109;Laerm;32856;51.422;6.794;2024-01-30T05:41:59;63.72;55.85;76.17;;
47109;Laerm;32856;51.422;6.794;2024-01-30T05:44:27;62.26;56.13;73.05;;
47109;Laerm;32856;51.422;6.794;2024-01-30T05:46:54;62.29;55.43;76.53;;
47109;Laerm;32856;51.422;6.794;2024-01-30T05:49:23;64.73;55.05;79.08;;
47109;Laerm;32856;51.422;6.794;2024-01-30T05:51:51;64.41;54.99;74.65;;
47109;Laerm;32856;51.422;6.794;2024-01-30T05:54:18;63.00;54.60;74.44;;
47109;Laerm;32856;51.422;6.794;2024-01-30T05:56:45;66.05;55.55;78.05;;
47109;Laerm;32856;51.422;6.794;2024-01-30T05:59:13;61.83;56.35;72.01;;
47109;Laerm;32856;51.422;6.794;2024-01-30T06:01:45;62.71;55.74;73.95;;
47109;Laerm;32856;51.422;6.794;2024-01-30T06:04:12;64.80;55.83;76.00;;
47109;Laerm;32856;51.422;6.794;2024-01-30T06:06:41;62.49;56.19;71.93;;
47109;Laerm;32856;51.422;6.794;2024-01-30T06:09:09;66.30;56.46;85.69;;
47109;Laerm;32856;51.422;6.794;2024-01-30T06:11:36;63.95;55.81;75.20;;
47109;Laerm;32856;51.422;6.794;2024-01-30T06:14:03;65.72;56.03;76.67;;
47109;Laerm;32856;51.422;6.794;2024-01-30T06:16:31;64.28;56.54;74.09;;
47109;Laerm;32856;51.422;6.794;2024-01-30T06:18:58;63.70;55.99;74.60;;
47109;Laerm;32856;51.422;6.794;2024-01-30T06:21:26;66.27;56.01;79.71;;
47109;Laerm;32856;51.422;6.794;2024-01-30T06:23:54;65.27;55.35;74.52;;
47109;Laerm;32856;51.422;6.794;2024-01-30T06:26:22;66.33;55.55;79.50;;
47109;Laerm;32856;51.422;6.794;2024-01-30T06:28:49;66.46;55.99;79.29;;
47109;Laerm;32856;51.422;6.794;2024-01-30T06:31:16;63.33;54.94;73.66;;
47109;Laerm;32856;51.422;6.794;2024-01-30T06:33:46;64.75;56.43;76.95;;
47109;Laerm;32856;51.422;6.794;2024-01-30T06:36:13;65.14;55.96;83.30;;
47109;Laerm;32856;51.422;6.794;2024-01-30T06:38:41;64.81;55.57;76.19;;
47109;Laerm;32856;51.422;6.794;2024-01-30T06:41:09;65.63;56.43;73.78;;
47109;Laerm;32856;51.422;6.794;2024-01-30T06:43:37;65.19;55.96;72.73;;
47109;Laerm;32856;51.422;6.794;2024-01-30T06:46:04;63.46;54.59;75.64;;
47109;Laerm;32856;51.422;6.794;2024-01-30T06:48:31;64.11;53.15;75.08;;
47109;Laerm;32856;51.422;6.794;2024-01-30T06:50:59;65.92;54.92;75.45;;
47109;Laerm;32856;51.422;6.794;2024-01-30T06:53:26;65.61;55.44;79.26;;
47109;Laerm;32856;51.422;6.794;2024-01-30T06:55:53;65.37;55.07;76.28;;
47109;Laerm;32856;51.422;6.794;2024-01-30T06:58:22;65.68;55.70;74.82;;
47109;Laerm;32856;51.422;6.794;2024-01-30T07:00:49;66.44;55.41;77.49;;
47109;Laerm;32856;51.422;6.794;2024-01-30T07:03:17;66.66;54.94;78.93;;
47109;Laerm;32856;51.422;6.794;2024-01-30T07:05:44;63.90;53.79;75.27;;
47109;Laerm;32856;51.422;6.794;2024-01-30T07:08:12;67.18;54.27;80.33;;
47109;Laerm;32856;51.422;6.794;2024-01-30T07:10:39;64.56;55.12;75.22;;
47109;Laerm;32856;51.422;6.794;2024-01-30T07:13:07;65.04;54.86;79.27;;
47109;Laerm;32856;51.422;6.794;2024-01-30T07:15:37;65.48;54.66;76.09;;
47109;Laerm;32856;51.422;6.794;2024-01-30T07:18:05;66.11;55.04;82.05;;
47109;Laerm;32856;51.422;6.794;2024-01-30T07:20:32;65.15;54.55;75.65;;
47109;Laerm;32856;51.422;6.794;2024-01-30T07:23:00;64.82;55.30;75.49;;
47109;Laerm;32856;51.422;6.794;2024-01-30T07:25:28;67.53;54.85;78.25;;
47109;Laerm;32856;51.422;6.794;2024-01-30T07:27:56;65.06;55.66;74.85;;
47109;Laerm;32856;51.422;6.794;2024-01-30T07:30:23;67.31;54.30;80.30;;
47109;Laerm;32856;51.422;6.794;2024-01-30T07:32:52;64.52;55.53;74.14;;
47109;Laerm;32856;51.422;6.794;2024-01-30T07:35:19;67.02;55.89;82.06;;
47109;Laerm;32856;51.422;6.794;2024-01-30T07:37:47;69.00;55.65;84.51;;
47109;Laerm;32856;51.422;6.794;2024-01-30T07:40:14;67.63;55.33;80.87;;
47109;Laerm;32856;51.422;6.794;2024-01-30T07:42:42;67.19;55.64;81.31;;
47109;Laerm;32856;51.422;6.794;2024-01-30T07:45:10;66.84;55.20;76.80;;
47109;Laerm;32856;51.422;6.794;2024-01-30T07:47:37;64.89;55.60;73.00;;
47109;Laerm;32856;51.422;6.794;2024-01-30T07:50:07;65.65;55.10;76.47;;
47109;Laerm;32856;51.422;6.794;2024-01-30T07:52:34;68.65;56.77;82.87;;
47109;Laerm;32856;51.422;6.794;2024-01-30T07:55:03;65.40;55.13;77.10;;
47109;Laerm;32856;51.422;6.794;2024-01-30T07:57:30;68.34;55.43;79.21;;
47109;Laerm;32856;51.422;6.794;2024-01-30T07:59:57;65.25;54.49;77.16;;
47109;Laerm;32856;51.422;6.794;2024-01-30T08:02:25;64.84;54.95;77.83;;
47109;Laerm;32856;51.422;6.794;2024-01-30T08:04:52;67.22;56.47;83.07;;
47109;Laerm;32856;51.422;6.794;2024-01-30T08:07:21;65.55;54.84;79.43;;
47109;Laerm;32856;51.422;6.794;2024-01-30T08:09:48;67.73;54.86;80.48;;
47109;Laerm;32856;51.422;6.794;2024-01-30T08:12:16;65.91;54.41;80.70;;
47109;Laerm;32856;51.422;6.794;2024-01-30T08:14:43;62.65;54.65;71.85;;
47109;Laerm;32856;51.422;6.794;2024-01-30T08:17:10;63.24;54.32;73.93;;
47109;Laerm;32856;51.422;6.794;2024-01-30T08:19:38;65.20;54.96;80.30;;
47109;Laerm;32856;51.422;6.794;2024-01-30T08:22:05;67.55;55.63;83.10;;
47109;Laerm;32856;51.422;6.794;2024-01-30T08:24:34;64.77;54.56;77.92;;
47109;Laerm;32856;51.422;6.794;2024-01-30T08:27:01;63.81;53.75;74.99;;
47109;Laerm;32856;51.422;6.794;2024-01-30T08:29:31;66.00;54.97;79.33;;
47109;Laerm;32856;51.422;6.794;2024-01-30T08:31:58;65.17;53.62;75.95;;
47109;Laerm;32856;51.422;6.794;2024-01-30T08:34:26;66.60;52.85;80.55;;
47109;Laerm;32856;51.422;6.794;2024-01-30T08:36:54;65.72;55.46;79.14;;
47109;Laerm;32856;51.422;6.794;2024-01-30T08:39:21;64.82;56.14;73.58;;
47109;Laerm;32856;51.422;6.794;2024-01-30T08:41:50;67.36;55.59;80.82;;
47109;Laerm;32856;51.422;6.794;2024-01-30T08:44:17;67.09;55.25;83.73;;
47109;Laerm;32856;51.422;6.794;2024-01-30T08:46:44;66.11;55.37;75.88;;
47109;Laerm;32856;51.422;6.794;2024-01-30T08:49:12;64.20;55.23;73.98;;
47109;Laerm;32856;51.422;6.794;2024-01-30T08:51:40;66.69;56.06;77.46;;
47109;Laerm;32856;51.422;6.794;2024-01-30T08:54:08;66.80;55.33;78.22;;
47109;Laerm;32856;51.422;6.794;2024-01-30T08:56:35;65.54;55.65;76.03;;
47109;Laerm;32856;51.422;6.794;2024-01-30T08:59:04;68.95;53.90;93.76;;
47109;Laerm;32856;51.422;6.794;2024-01-30T09:01:31;66.24;54.73;79.37;;
47109;Laerm;32856;51.422;6.794;2024-01-30T09:03:58;67.42;54.09;79.96;;
47109;Laerm;32856;51.422;6.794;2024-01-30T09:06:26;63.69;53.93;75.25;;
47109;Laerm;32856;51.422;6.794;2024-01-30T09:08:55;64.27;53.21;76.38;;
47109;Laerm;32856;51.422;6.794;2024-01-30T09:11:24;68.78;55.34;82.73;;
47109;Laerm;32856;51.422;6.794;2024-01-30T09:13:51;63.40;53.51;74.27;;
47109;Laerm;32856;51.422;6.794;2024-01-30T09:16:20;65.26;53.21;76.56;;
47109;Laerm;32856;51.422;6.794;2024-01-30T09:18:47;67.57;55.58;78.76;;
47109;Laerm;32856;51.422;6.794;2024-01-30T09:21:14;64.62;53.08;75.50;;
47109;Laerm;32856;51.422;6.794;2024-01-30T09:23:42;65.75;54.38;78.63;;
47109;Laerm;32856;51.422;6.794;2024-01-30T09:26:09;63.13;52.84;75.94;;
47109;Laerm;32856;51.422;6.794;2024-01-30T09:28:38;65.84;53.88;78.48;;
47109;Laerm;32856;51.422;6.794;2024-01-30T09:31:09;66.05;53.34;84.85;;
47109;Laerm;32856;51.422;6.794;2024-01-30T09:33:38;66.97;53.26;76.98;;
47109;Laerm;32856;51.422;6.794;2024-01-30T09:36:06;63.97;53.70;77.21;;
47109;Laerm;32856;51.422;6.794;2024-01-30T09:38:33;63.45;54.51;76.85;;
47109;Laerm;32856;51.422;6.794;2024-01-30T09:41:01;67.32;54.57;79.46;;
47109;Laerm;32856;51.422;6.794;2024-01-30T09:43:31;63.12;52.47;79.01;;
47109;Laerm;32856;51.422;6.794;2024-01-30T09:46:00;65.76;53.98;79.37;;
47109;Laerm;32856;51.422;6.794;2024-01-30T09:48:29;67.91;53.66;82.14;;
47109;Laerm;32856;51.422;6.794;2024-01-30T09:50:58;63.74;53.51;75.47;;
47109;Laerm;32856;51.422;6.794;2024-01-30T09:53:25;64.81;53.09;77.55;;
47109;Laerm;32856;51.422;6.794;2024-01-30T09:55:53;64.81;54.40;76.37;;
47109;Laerm;32856;51.422;6.794;2024-01-30T09:58:20;67.42;55.07;85.90;;
47109;Laerm;32856;51.422;6.794;2024-01-30T10:00:48;65.90;52.19;80.83;;
47109;Laerm;32856;51.422;6.794;2024-01-30T10:03:16;62.10;52.64;73.39;;
47109;Laerm;32856;51.422;6.794;2024-01-30T10:05:45;65.64;54.04;78.95;;
47109;Laerm;32856;51.422;6.794;2024-01-30T10:08:18;64.96;53.44;79.88;;
47109;Laerm;32856;51.422;6.794;2024-01-30T10:10:46;65.70;53.25;77.88;;
47109;Laerm;32856;51.422;6.794;2024-01-30T10:13:13;65.59;53.26;77.40;;
47109;Laerm;32856;51.422;6.794;2024-01-30T10:15:41;63.98;52.31;72.92;;
47109;Laerm;32856;51.422;6.794;2024-01-30T10:18:08;65.27;53.25;80.78;;
47109;Laerm;32856;51.422;6.794;2024-01-30T10:20:36;66.58;54.32;78.96;;
47109;Laerm;32856;51.422;6.794;2024-01-30T10:23:04;63.85;52.54;76.93;;
47109;Laerm;32856;51.422;6.794;2024-01-30T10:25:32;63.18;53.49;74.94;;
47109;Laerm;32856;51.422;6.794;2024-01-30T10:28:00;67.07;54.27;79.15;;
47109;Laerm;32856;51.422;6.794;2024-01-30T10:30:27;65.54;53.10;86.35;;
47109;Laerm;32856;51.422;6.794;2024-01-30T10:32:55;65.84;53.41;74.12;;
47109;Laerm;32856;51.422;6.794;2024-01-30T10:35:22;66.09;54.64;79.25;;
47109;Laerm;32856;51.422;6.794;2024-01-30T10:37:50;64.22;54.80;79.97;;
47109;Laerm;32856;51.422;6.794;2024-01-30T10:40:17;67.18;53.92;86.48;;
47109;Laerm;32856;51.422;6.794;2024-01-30T10:42:50;64.93;53.53;75.47;;
47109;Laerm;32856;51.422;6.794;2024-01-30T10:45:21;67.11;55.75;76.72;;
47109;Laerm;32856;51.422;6.794;2024-01-30T10:47:49;65.60;54.04;79.97;;
47109;Laerm;32856;51.422;6.794;2024-01-30T10:50:17;63.88;55.22;73.90;;
47109;Laerm;32856;51.422;6.794;2024-01-30T10:52:45;68.38;56.52;79.11;;
47109;Laerm;32856;51.422;6.794;2024-01-30T10:55:13;67.15;54.99;80.56;;
47109;Laerm;32856;51.422;6.794;2024-01-30T10:57:41;66.23;57.23;75.62;;
47109;Laerm;32856;51.422;6.794;2024-01-30T11:00:11;68.49;55.89;76.83;;
47109;Laerm;32856;51.422;6.794;2024-01-30T11:02:39;64.32;56.19;74.30;;
47109;Laerm;32856;51.422;6.794;2024-01-30T11:05:07;67.24;55.67;78.82;;
47109;Laerm;32856;51.422;6.794;2024-01-30T11:07:35;67.10;54.93;76.02;;
47109;Laerm;32856;51.422;6.794;2024-01-30T11:10:03;68.85;56.33;80.11;;
47109;Laerm;32856;51.422;6.794;2024-01-30T11:12:31;65.58;55.00;74.30;;
47109;Laerm;32856;51.422;6.794;2024-01-30T11:15:03;68.54;54.30;80.56;;
47109;Laerm;32856;51.422;6.794;2024-01-30T11:17:49;70.78;57.41;82.16;;
47109;Laerm;32856;51.422;6.794;2024-01-30T11:20:19;68.41;54.87;79.10;;
47109;Laerm;32856;51.422;6.794;2024-01-30T11:22:47;66.41;54.97;78.38;;
47109;Laerm;32856;51.422;6.794;2024-01-30T11:25:15;64.00;53.02;75.48;;
47109;Laerm;32856;51.422;6.794;2024-01-30T11:27:43;63.00;52.81;73.67;;
47109;Laerm;32856;51.422;6.794;2024-01-30T11:30:11;67.10;52.28;78.59;;
47109;Laerm;32856;51.422;6.794;2024-01-30T11:32:58;65.63;52.19;77.74;;
47109;Laerm;32856;51.422;6.794;2024-01-30T11:35:26;64.73;51.87;83.55;;
47109;Laerm;32856;51.422;6.794;2024-01-30T11:37:54;61.29;51.71;76.59;;
47109;Laerm;32856;51.422;6.794;2024-01-30T11:40:21;67.47;52.77;80.61;;
47109;Laerm;32856;51.422;6.794;2024-01-30T11:42:48;63.03;52.29;74.51;;
47109;Laerm;32856;51.422;6.794;2024-01-30T11:45:17;66.58;54.61;76.27;;
47109;Laerm;32856;51.422;6.794;2024-01-30T11:47:44;63.77;53.23;75.16;;
47109;Laerm;32856;51.422;6.794;2024-01-30T11:50:13;64.90;52.46;76.24;;
47109;Laerm;32856;51.422;6.794;2024-01-30T11:52:41;65.56;51.78;76.54;;
47109;Laerm;32856;51.422;6.794;2024-01-30T11:55:09;63.75;52.56;73.93;;
47109;Laerm;32856;51.422;6.794;2024-01-30T11:57:37;66.00;53.28;79.38;;
47109;Laerm;32856;51.422;6.794;2024-01-30T12:00:05;65.43;53.03;80.30;;
47109;Laerm;32856;51.422;6.794;2024-01-30T12:02:36;66.95;51.56;81.62;;
47109;Laerm;32856;51.422;6.794;2024-01-30T12:05:04;63.50;53.88;75.64;;
47109;Laerm;32856;51.422;6.794;2024-01-30T12:07:33;67.23;53.57;77.97;;
47109;Laerm;32856;51.422;6.794;2024-01-30T12:10:00;66.84;52.06;82.21;;
47109;Laerm;32856;51.422;6.794;2024-01-30T12:12:29;62.78;51.66;73.85;;
47109;Laerm;32856;51.422;6.794;2024-01-30T12:14:56;62.12;52.63;76.21;;
47109;Laerm;32856;51.422;6.794;2024-01-30T12:17:26;66.38;53.56;82.00;;
47109;Laerm;32856;51.422;6.794;2024-01-30T12:20:02;66.78;52.99;84.99;;
47109;Laerm;32856;51.422;6.794;2024-01-30T12:22:29;64.97;52.41;79.59;;
47109;Laerm;32856;51.422;6.794;2024-01-30T12:24:58;66.71;53.09;81.16;;
47109;Laerm;32856;51.422;6.794;2024-01-30T12:27:26;64.39;52.74;75.33;;
47109;Laerm;32856;51.422;6.794;2024-01-30T12:29:56;66.28;53.42;82.44;;
47109;Laerm;32856;51.422;6.794;2024-01-30T12:32:24;65.84;53.77;76.18;;
47109;Laerm;32856;51.422;6.794;2024-01-30T12:34:54;63.48;52.98;75.53;;
47109;Laerm;32856;51.422;6.794;2024-01-30T12:37:22;66.60;51.17;77.68;;
47109;Laerm;32856;51.422;6.794;2024-01-30T12:39:51;66.44;54.18;79.63;;
47109;Laerm;32856;51.422;6.794;2024-01-30T12:42:20;62.49;52.80;73.44;;
47109;Laerm;32856;51.422;6.794;2024-01-30T12:44:48;63.70;51.77;73.18;;
47109;Laerm;32856;51.422;6.794;2024-01-30T12:47:16;65.74;53.18;80.17;;
47109;Laerm;32856;51.422;6.794;2024-01-30T12:49:43;61.20;53.00;73.23;;
47109;Laerm;32856;51.422;6.794;2024-01-30T12:52:11;66.87;54.28;82.70;;
47109;Laerm;32856;51.422;6.794;2024-01-30T12:54:38;65.79;53.19;78.74;;
47109;Laerm;32856;51.422;6.794;2024-01-30T12:57:06;62.35;52.16;75.39;;
47109;Laerm;32856;51.422;6.794;2024-01-30T12:59:33;67.86;53.25;80.35;;
47109;Laerm;32856;51.422;6.794;2024-01-30T13:02:01;66.27;53.82;80.54;;
47109;Laerm;32856;51.422;6.794;2024-01-30T13:04:29;68.60;52.28;81.72;;
47109;Laerm;32856;51.422;6.794;2024-01-30T13:06:57;66.55;53.06;77.22;;
47109;Laerm;32856;51.422;6.794;2024-01-30T13:09:24;66.43;53.54;78.56;;
47109;Laerm;32856;51.422;6.794;2024-01-30T13:11:52;66.42;52.26;78.23;;
47109;Laerm;32856;51.422;6.794;2024-01-30T13:14:19;64.78;51.31;75.02;;
47109;Laerm;32856;51.422;6.794;2024-01-30T13:16:48;65.31;51.00;79.35;;
47109;Laerm;32856;51.422;6.794;2024-01-30T13:19:15;66.91;51.45;76.97;;
47109;Laerm;32856;51.422;6.794;2024-01-30T13:21:43;67.16;51.06;81.47;;
47109;Laerm;32856;51.422;6.794;2024-01-30T13:24:10;67.03;51.25;84.87;;
47109;Laerm;32856;51.422;6.794;2024-01-30T13:26:37;64.07;51.93;77.22;;
47109;Laerm;32856;51.422;6.794;2024-01-30T13:29:05;64.88;50.70;78.91;;
47109;Laerm;32856;51.422;6.794;2024-01-30T13:31:32;65.34;50.94;80.08;;
47109;Laerm;32856;51.422;6.794;2024-01-30T13:34:02;65.78;51.64;76.36;;
47109;Laerm;32856;51.422;6.794;2024-01-30T13:36:32;65.72;51.41;79.77;;
47109;Laerm;32856;51.422;6.794;2024-01-30T13:39:00;67.40;52.30;79.02;;
47109;Laerm;32856;51.422;6.794;2024-01-30T13:41:27;65.13;50.68;79.04;;
47109;Laerm;32856;51.422;6.794;2024-01-30T13:43:56;68.53;52.71;82.03;;
47109;Laerm;32856;51.422;6.794;2024-01-30T13:46:23;67.39;50.32;78.51;;
47109;Laerm;32856;51.422;6.794;2024-01-30T13:48:51;69.46;50.79;84.05;;